createdAt,value
2023-01-28T00:00:55.262Z,73.39
2023-01-28T00:03:22.723Z,73.40
2023-01-28T00:05:49.908Z,73.29
2023-01-28T00:08:17.162Z,73.39
2023-01-28T00:10:49.661Z,73.50
2023-01-28T00:13:26.576Z,73.73
2023-01-28T00:15:57.700Z,73.50
2023-01-28T00:18:25.647Z,73.64
2023-01-28T00:21:04.765Z,73.65
2023-01-28T00:23:33.149Z,73.47
2023-01-28T00:26:00.876Z,73.39
2023-01-28T00:28:28.244Z,73.10
2023-01-28T00:30:55.216Z,73.14
2023-01-28T00:33:22.243Z,72.91
2023-01-28T00:35:57.686Z,72.94
2023-01-28T00:38:24.973Z,73.08
2023-01-28T00:40:51.766Z,72.88
2023-01-28T00:43:18.602Z,72.96
2023-01-28T00:45:45.347Z,73.00
2023-01-28T00:48:12.403Z,72.95
2023-01-28T00:50:39.827Z,72.82
2023-01-28T00:53:06.881Z,72.92
2023-01-28T00:55:33.717Z,72.86
2023-01-28T00:58:00.663Z,72.76
2023-01-28T01:00:27.419Z,72.70
2023-01-28T01:02:54.420Z,72.62
2023-01-28T01:05:21.382Z,72.61
2023-01-28T01:07:48.345Z,72.72
2023-01-28T01:10:16.827Z,72.86
2023-01-28T01:12:44.261Z,72.79
2023-01-28T01:15:11.365Z,72.78
2023-01-28T01:17:38.863Z,72.93
2023-01-28T01:20:07.110Z,73.00
2023-01-28T01:22:35.003Z,72.54
2023-01-28T01:25:02.367Z,72.41
2023-01-28T01:27:29.299Z,72.16
2023-01-28T01:29:56.131Z,72.32
2023-01-28T01:32:23.103Z,72.20
2023-01-28T01:34:50.262Z,72.37
2023-01-28T01:37:17.182Z,72.35
2023-01-28T01:39:44.010Z,72.48
2023-01-28T01:42:12.197Z,72.58
2023-01-28T01:45:00.462Z,72.30
2023-01-28T01:47:42.237Z,72.14
2023-01-28T01:50:27.623Z,72.08
2023-01-28T01:52:57.295Z,71.93
2023-01-28T01:55:26.411Z,71.97
2023-01-28T01:57:56.223Z,72.28
2023-01-28T02:00:23.138Z,72.13
2023-01-28T02:02:52.080Z,72.58
2023-01-28T02:05:20.728Z,72.44
2023-01-28T02:07:48.964Z,72.58
2023-01-28T02:10:16.263Z,72.74
2023-01-28T02:12:49.948Z,72.50
2023-01-28T02:15:21.222Z,72.51
2023-01-28T02:17:49.915Z,72.81
2023-01-28T02:20:35.461Z,72.73
2023-01-28T02:23:21.021Z,72.99
2023-01-28T02:26:06.337Z,73.23
2023-01-28T02:28:36.655Z,73.28
2023-01-28T02:31:04.085Z,73.13
2023-01-28T02:33:31.320Z,73.41
2023-01-28T02:36:03.533Z,73.17
2023-01-28T02:38:33.602Z,73.28
2023-01-28T02:41:10.733Z,73.10
2023-01-28T02:43:39.504Z,73.49
2023-01-28T02:46:32.042Z,73.55
2023-01-28T02:48:59.495Z,73.64
2023-01-28T02:51:29.218Z,73.44
2023-01-28T02:54:04.342Z,73.37
2023-01-28T02:56:38.217Z,73.43
2023-01-28T02:59:34.380Z,73.14
2023-01-28T03:02:20.792Z,73.21
2023-01-28T03:04:47.478Z,73.34
2023-01-28T03:07:15.502Z,73.34
2023-01-28T03:09:43.822Z,73.28
2023-01-28T03:12:34.656Z,73.62
2023-01-28T03:15:23.694Z,73.70
2023-01-28T03:18:09.158Z,73.69
2023-01-28T03:20:58.677Z,73.87
2023-01-28T03:23:49.345Z,73.71
2023-01-28T03:26:34.739Z,73.62
2023-01-28T03:29:25.717Z,73.35
2023-01-28T03:32:12.413Z,73.68
2023-01-28T03:34:57.893Z,73.62
2023-01-28T03:37:26.095Z,73.73
2023-01-28T03:39:53.253Z,73.87
2023-01-28T03:42:20.155Z,74.01
2023-01-28T03:44:53.288Z,74.12
2023-01-28T03:47:21.542Z,74.21
2023-01-28T03:49:52.585Z,74.21
2023-01-28T03:52:24.934Z,73.74
2023-01-28T03:54:53.534Z,73.80
2023-01-28T03:57:22.094Z,73.75
2023-01-28T03:59:50.257Z,74.00
2023-01-28T04:02:40.442Z,74.03
2023-01-28T04:05:13.242Z,74.16
2023-01-28T04:07:40.288Z,73.98
2023-01-28T04:10:09.016Z,74.17
2023-01-28T04:12:38.254Z,73.97
2023-01-28T04:15:16.191Z,74.19
2023-01-28T04:17:46.835Z,74.10
2023-01-28T04:20:14.187Z,74.05
2023-01-28T04:22:41.298Z,74.16
2023-01-28T04:25:08.471Z,74.04
2023-01-28T04:27:35.295Z,74.13
2023-01-28T04:30:02.215Z,74.16
2023-01-28T04:32:29.055Z,74.42
2023-01-28T04:34:55.895Z,74.17
2023-01-28T04:37:22.654Z,74.15
2023-01-28T04:39:49.617Z,74.30
2023-01-28T04:42:16.616Z,74.32
2023-01-28T04:44:43.491Z,74.57
2023-01-28T04:47:10.403Z,74.50
2023-01-28T04:49:37.575Z,74.22
2023-01-28T04:52:04.407Z,74.52
2023-01-28T04:54:31.255Z,74.67
2023-01-28T04:56:57.968Z,74.63
2023-01-28T04:59:24.815Z,74.86
2023-01-28T05:01:51.667Z,74.82
2023-01-28T05:04:18.496Z,74.89
2023-01-28T05:06:45.256Z,74.90
2023-01-28T05:09:12.066Z,74.95
2023-01-28T05:11:39.313Z,74.89
2023-01-28T05:14:06.374Z,74.84
2023-01-28T05:16:34.614Z,75.09
2023-01-28T05:19:02.415Z,74.95
2023-01-28T05:21:36.021Z,75.13
2023-01-28T05:24:05.027Z,75.03
2023-01-28T05:26:32.252Z,75.20
2023-01-28T05:28:59.108Z,75.13
2023-01-28T05:31:26.040Z,75.31
2023-01-28T05:33:53.372Z,74.94
2023-01-28T05:36:20.424Z,74.99
2023-01-28T05:38:47.191Z,75.06
2023-01-28T05:41:14.002Z,75.10
2023-01-28T05:43:40.877Z,75.02
2023-01-28T05:46:07.769Z,75.02
2023-01-28T05:48:34.513Z,75.22
2023-01-28T05:51:02.392Z,75.19
2023-01-28T05:53:29.147Z,75.26
2023-01-28T05:55:55.982Z,75.09
2023-01-28T05:58:22.809Z,75.36
2023-01-28T06:00:49.662Z,75.18
2023-01-28T06:03:16.384Z,75.22
2023-01-28T06:05:43.119Z,74.86
2023-01-28T06:08:10.577Z,75.00
2023-01-28T06:10:37.411Z,74.78
2023-01-28T06:13:04.147Z,74.59
2023-01-28T06:15:30.985Z,74.87
2023-01-28T06:17:57.836Z,74.76
2023-01-28T06:20:24.678Z,74.72
2023-01-28T06:22:52.353Z,74.72
2023-01-28T06:25:19.309Z,74.55
2023-01-28T06:27:46.526Z,74.26
2023-01-28T06:30:14.082Z,74.39
2023-01-28T06:32:41.126Z,74.00
2023-01-28T06:35:09.194Z,74.11
2023-01-28T06:37:35.942Z,74.34
2023-01-28T06:40:03.405Z,74.22
2023-01-28T06:42:30.141Z,74.28
2023-01-28T06:44:56.858Z,74.17
2023-01-28T06:47:23.598Z,74.32
2023-01-28T06:49:50.445Z,74.05
2023-01-28T06:52:17.171Z,74.29
2023-01-28T06:54:44.027Z,74.21
2023-01-28T06:57:10.766Z,74.36
2023-01-28T06:59:37.512Z,74.26
2023-01-28T07:02:04.430Z,74.44
2023-01-28T07:04:31.899Z,74.42
2023-01-28T07:06:58.836Z,74.41
2023-01-28T07:09:25.599Z,74.37
2023-01-28T07:11:52.762Z,74.41
2023-01-28T07:14:19.468Z,74.32
2023-01-28T07:16:46.160Z,74.11
2023-01-28T07:19:12.834Z,74.39
2023-01-28T07:21:39.673Z,73.91
2023-01-28T07:24:06.881Z,74.04
2023-01-28T07:26:33.765Z,74.35
2023-01-28T07:29:00.704Z,74.27
2023-01-28T07:31:27.526Z,74.26
2023-01-28T07:33:54.394Z,74.20
2023-01-28T07:36:21.265Z,74.34
2023-01-28T07:38:48.068Z,74.00
2023-01-28T07:41:14.804Z,73.80
2023-01-28T07:43:41.679Z,73.95
2023-01-28T07:46:08.591Z,74.45
2023-01-28T07:48:36.469Z,74.32
2023-01-28T07:51:03.288Z,74.16
2023-01-28T07:53:30.350Z,74.31
2023-01-28T07:56:01.847Z,74.18
2023-01-28T07:58:29.074Z,74.16
2023-01-28T08:00:59.774Z,74.39
2023-01-28T08:03:27.468Z,73.98
2023-01-28T08:05:55.945Z,73.80
2023-01-28T08:08:23.658Z,73.96
2023-01-28T08:10:50.570Z,73.95
2023-01-28T08:13:18.264Z,73.86
2023-01-28T08:15:45.837Z,74.13
2023-01-28T08:18:13.926Z,74.00
2023-01-28T08:20:42.107Z,74.10
2023-01-28T08:23:19.173Z,74.19
2023-01-28T08:25:46.699Z,73.91
2023-01-28T08:28:14.386Z,73.89
2023-01-28T08:30:41.667Z,74.04
2023-01-28T08:33:10.047Z,73.95
2023-01-28T08:35:38.926Z,73.86
2023-01-28T08:38:11.000Z,74.10
2023-01-28T08:40:37.904Z,74.08
2023-01-28T08:43:05.048Z,73.85
2023-01-28T08:45:32.384Z,73.64
2023-01-28T08:48:03.985Z,73.61
2023-01-28T08:50:35.104Z,73.31
2023-01-28T08:53:03.982Z,73.33
2023-01-28T08:55:31.312Z,73.34
2023-01-28T08:57:58.714Z,73.47
2023-01-28T09:00:25.936Z,73.28
2023-01-28T09:02:53.478Z,73.17
2023-01-28T09:05:20.853Z,73.27
2023-01-28T09:07:47.976Z,73.24
2023-01-28T09:10:16.896Z,73.31
2023-01-28T09:12:44.534Z,73.30
2023-01-28T09:15:12.081Z,72.83
2023-01-28T09:17:39.586Z,72.98
2023-01-28T09:20:07.606Z,72.85
2023-01-28T09:22:34.650Z,72.94
2023-01-28T09:25:01.730Z,72.74
2023-01-28T09:27:28.842Z,72.55
2023-01-28T09:29:55.891Z,72.35
2023-01-28T09:32:24.171Z,72.60
2023-01-28T09:34:51.104Z,72.47
2023-01-28T09:37:18.772Z,72.40
2023-01-28T09:39:45.610Z,72.44
2023-01-28T09:42:39.406Z,72.12
2023-01-28T09:45:18.302Z,72.05
2023-01-28T09:47:48.419Z,72.41
2023-01-28T09:50:24.061Z,72.04
2023-01-28T09:52:51.420Z,72.01
2023-01-28T09:55:36.829Z,71.76
2023-01-28T09:58:06.311Z,72.01
2023-01-28T10:00:47.906Z,72.20
2023-01-28T10:03:26.755Z,72.56
2023-01-28T10:06:09.208Z,72.06
2023-01-28T10:08:39.148Z,72.00
2023-01-28T10:11:06.068Z,71.89
2023-01-28T10:13:40.130Z,71.37
2023-01-28T10:16:29.550Z,71.61
2023-01-28T10:19:07.434Z,71.47
2023-01-28T10:21:34.282Z,71.10
2023-01-28T10:24:06.988Z,70.71
2023-01-28T10:26:37.264Z,71.10
2023-01-28T10:29:10.302Z,70.51
2023-01-28T10:31:40.623Z,70.12
2023-01-28T10:34:07.536Z,69.92
2023-01-28T10:36:34.607Z,70.15
2023-01-28T10:39:01.967Z,70.12
2023-01-28T10:41:28.766Z,70.54
2023-01-28T10:43:57.570Z,70.67
2023-01-28T10:46:29.650Z,70.29
2023-01-28T10:49:05.469Z,70.48
2023-01-28T10:51:34.171Z,70.76
2023-01-28T10:54:01.326Z,70.82
2023-01-28T10:56:30.844Z,70.30
2023-01-28T10:59:01.158Z,70.25
2023-01-28T11:01:44.712Z,70.60
2023-01-28T11:04:30.026Z,70.71
2023-01-28T11:07:01.494Z,70.35
2023-01-28T11:09:31.281Z,70.30
2023-01-28T11:12:12.301Z,70.30
2023-01-28T11:14:39.242Z,70.57
2023-01-28T11:17:13.973Z,70.71
2023-01-28T11:19:40.929Z,70.48
2023-01-28T11:22:20.131Z,70.30
2023-01-28T11:24:47.482Z,69.90
2023-01-28T11:27:18.897Z,70.57
2023-01-28T11:29:46.045Z,70.50
2023-01-28T11:32:20.228Z,69.76
2023-01-28T11:34:51.981Z,69.45
2023-01-28T11:37:22.290Z,69.63
2023-01-28T11:39:49.384Z,69.16
2023-01-28T11:42:20.133Z,69.33
2023-01-28T11:44:47.811Z,69.01
2023-01-28T11:47:25.685Z,69.26
2023-01-28T11:49:52.690Z,69.33
2023-01-28T11:52:19.663Z,69.21
2023-01-28T11:54:53.073Z,69.09
2023-01-28T11:57:52.353Z,69.31
2023-01-28T12:00:32.048Z,69.33
2023-01-28T12:03:17.377Z,68.95
2023-01-28T12:05:50.156Z,69.46
2023-01-28T12:08:21.567Z,69.09
2023-01-28T12:11:08.148Z,68.44
2023-01-28T12:13:55.212Z,68.31
2023-01-28T12:16:22.017Z,68.56
2023-01-28T12:18:54.692Z,68.34
2023-01-28T12:21:41.355Z,69.15
2023-01-28T12:24:24.261Z,68.26
2023-01-28T12:27:22.283Z,67.98
2023-01-28T12:30:02.389Z,68.28
2023-01-28T12:32:39.744Z,68.34
2023-01-28T12:35:17.985Z,68.66
2023-01-28T12:38:01.604Z,68.52
2023-01-28T12:41:01.010Z,67.67
2023-01-28T12:43:39.209Z,68.05
2023-01-28T12:46:22.947Z,67.92
2023-01-28T12:48:52.487Z,67.84
2023-01-28T12:51:25.683Z,68.43
2023-01-28T12:54:01.381Z,68.34
2023-01-28T12:56:32.294Z,68.00
2023-01-28T12:59:03.265Z,68.03
2023-01-28T13:01:38.318Z,68.17
2023-01-28T13:04:16.847Z,68.53
2023-01-28T13:06:56.490Z,68.05
2023-01-28T13:09:26.059Z,68.52
2023-01-28T13:11:54.854Z,68.58
2023-01-28T13:14:25.290Z,68.54
2023-01-28T13:16:52.287Z,68.95
2023-01-28T13:19:19.094Z,68.92
2023-01-28T13:21:49.418Z,69.25
2023-01-28T13:24:16.923Z,69.25
2023-01-28T13:26:48.471Z,69.26
2023-01-28T13:29:15.650Z,69.21
2023-01-28T13:31:46.687Z,69.67
2023-01-28T13:34:36.894Z,69.66
2023-01-28T13:37:06.157Z,69.74
2023-01-28T13:39:34.766Z,69.73
2023-01-28T13:42:09.571Z,70.07
2023-01-28T13:44:38.151Z,70.02
2023-01-28T13:47:07.963Z,70.31
2023-01-28T13:49:39.327Z,69.90
2023-01-28T13:52:13.402Z,70.17
2023-01-28T13:54:46.409Z,70.46
2023-01-28T13:57:32.170Z,70.61
2023-01-28T14:00:08.846Z,70.59
2023-01-28T14:02:48.071Z,71.06
2023-01-28T14:05:20.647Z,71.15
2023-01-28T14:08:16.806Z,71.12
2023-01-28T14:11:02.253Z,71.06
2023-01-28T14:13:44.238Z,71.31
2023-01-28T14:16:21.254Z,71.42
2023-01-28T14:18:49.010Z,71.34
2023-01-28T14:21:22.584Z,71.56
2023-01-28T14:23:50.941Z,71.63
2023-01-28T14:26:33.371Z,71.73
2023-01-28T14:29:06.346Z,71.86
2023-01-28T14:31:38.001Z,72.11
2023-01-28T14:34:08.012Z,71.73
2023-01-28T14:36:39.563Z,71.87
2023-01-28T14:39:12.175Z,71.87
2023-01-28T14:41:39.087Z,72.09
2023-01-28T14:44:08.180Z,72.30
2023-01-28T14:46:43.056Z,72.00
2023-01-28T14:49:22.028Z,72.31
2023-01-28T14:51:54.820Z,72.24
2023-01-28T14:54:24.984Z,72.25
2023-01-28T14:57:04.694Z,72.21
2023-01-28T14:59:46.977Z,72.15
2023-01-28T15:02:22.168Z,72.20
2023-01-28T15:04:49.871Z,72.46
2023-01-28T15:07:18.656Z,72.72
2023-01-28T15:09:46.035Z,72.79
2023-01-28T15:12:13.975Z,72.98
2023-01-28T15:14:41.422Z,72.95
2023-01-28T15:17:18.237Z,73.04
2023-01-28T15:19:48.918Z,73.22
2023-01-28T15:22:22.008Z,73.09
2023-01-28T15:24:50.287Z,73.51
2023-01-28T15:27:25.044Z,73.25
2023-01-28T15:29:53.506Z,73.34
2023-01-28T15:32:28.437Z,73.17
2023-01-28T15:34:55.567Z,73.20
2023-01-28T15:37:23.508Z,73.23
2023-01-28T15:40:00.525Z,73.27
2023-01-28T15:42:29.914Z,73.44
2023-01-28T15:45:00.546Z,73.41
2023-01-28T15:47:32.896Z,73.54
2023-01-28T15:50:01.829Z,73.41
2023-01-28T15:52:40.112Z,73.64
2023-01-28T15:55:07.778Z,73.70
2023-01-28T15:57:35.684Z,73.78
2023-01-28T16:00:16.063Z,74.04
2023-01-28T16:02:47.396Z,73.98
2023-01-28T16:05:26.598Z,74.19
2023-01-28T16:07:54.699Z,74.20
2023-01-28T16:10:25.229Z,74.25
2023-01-28T16:12:53.952Z,74.50
2023-01-28T16:15:21.945Z,74.45
2023-01-28T16:17:50.821Z,74.46
2023-01-28T16:20:27.821Z,74.35
2023-01-28T16:22:59.102Z,74.53
2023-01-28T16:25:27.825Z,75.07
2023-01-28T16:27:55.371Z,75.18
2023-01-28T16:30:22.779Z,75.47
2023-01-28T16:32:50.142Z,75.40
2023-01-28T16:35:18.958Z,75.75
2023-01-28T16:37:47.243Z,75.76
2023-01-28T16:40:16.048Z,75.97
2023-01-28T16:42:44.922Z,76.40
2023-01-28T16:45:16.651Z,76.78
2023-01-28T16:47:43.992Z,77.18
2023-01-28T16:50:12.140Z,77.55
2023-01-28T16:52:39.957Z,78.04
2023-01-28T16:55:07.269Z,78.32
2023-01-28T16:57:36.700Z,78.31
2023-01-28T17:00:04.705Z,78.58
2023-01-28T17:02:31.926Z,78.71
2023-01-28T17:04:58.701Z,78.97
2023-01-28T17:07:26.381Z,78.91
2023-01-28T17:09:53.364Z,79.33
2023-01-28T17:12:20.516Z,79.58
2023-01-28T17:14:47.819Z,79.51
2023-01-28T17:17:15.549Z,79.66
2023-01-28T17:19:42.679Z,80.20
2023-01-28T17:22:09.986Z,80.61
2023-01-28T17:24:37.268Z,80.38
2023-01-28T17:27:04.780Z,80.99
2023-01-28T17:29:32.168Z,81.31
2023-01-28T17:31:59.723Z,81.33
2023-01-28T17:34:26.887Z,81.49
2023-01-28T17:36:53.983Z,81.98
2023-01-28T17:39:20.931Z,82.14
2023-01-28T17:41:48.700Z,82.44
2023-01-28T17:44:16.326Z,83.74
2023-01-28T17:46:43.243Z,83.38
2023-01-28T17:49:10.220Z,83.46
2023-01-28T17:51:43.859Z,83.55
2023-01-28T17:54:21.081Z,84.05
2023-01-28T17:56:54.196Z,84.54
2023-01-28T17:59:25.733Z,84.09
2023-01-28T18:01:54.979Z,83.89
2023-01-28T18:04:22.119Z,83.90
2023-01-28T18:06:49.983Z,83.80
2023-01-28T18:09:18.798Z,84.34
2023-01-28T18:11:45.745Z,84.30
2023-01-28T18:14:12.892Z,84.32
2023-01-28T18:16:39.829Z,84.21
2023-01-28T18:19:07.280Z,84.19
2023-01-28T18:21:52.182Z,84.02
2023-01-28T18:24:20.898Z,84.52
2023-01-28T18:26:48.187Z,84.65
2023-01-28T18:29:19.639Z,84.67
2023-01-28T18:31:48.357Z,84.69
2023-01-28T18:34:15.817Z,84.92
2023-01-28T18:36:42.611Z,84.73
2023-01-28T18:39:13.447Z,84.75
2023-01-28T18:41:40.719Z,84.86
2023-01-28T18:44:11.646Z,85.04
2023-01-28T18:46:38.679Z,85.34
2023-01-28T18:49:05.621Z,85.23
2023-01-28T18:51:33.238Z,85.55
2023-01-28T18:54:01.037Z,85.76
2023-01-28T18:56:28.770Z,85.92
2023-01-28T18:58:59.139Z,86.51
2023-01-28T19:01:26.735Z,86.56
2023-01-28T19:03:57.642Z,87.32
2023-01-28T19:06:25.326Z,87.24
2023-01-28T19:08:53.981Z,87.15
2023-01-28T19:11:21.528Z,87.25
2023-01-28T19:13:48.603Z,87.66
2023-01-28T19:16:15.748Z,87.82
2023-01-28T19:18:42.998Z,88.34
2023-01-28T19:21:10.459Z,88.45
2023-01-28T19:23:49.162Z,88.60
2023-01-28T19:26:21.454Z,89.02
2023-01-28T19:28:49.987Z,89.30
2023-01-28T19:31:19.393Z,89.71
2023-01-28T19:33:47.403Z,89.90
2023-01-28T19:36:14.812Z,89.73
2023-01-28T19:38:42.166Z,89.54
2023-01-28T19:41:22.002Z,89.28
2023-01-28T19:43:48.772Z,89.61
2023-01-28T19:46:17.154Z,89.11
2023-01-28T19:48:44.797Z,89.09
2023-01-28T19:51:12.582Z,89.16
2023-01-28T19:53:40.487Z,89.19
2023-01-28T19:56:09.311Z,89.20
2023-01-28T19:58:37.266Z,89.47
2023-01-28T20:01:05.489Z,89.37
2023-01-28T20:03:32.651Z,89.39
2023-01-28T20:06:00.922Z,89.39
2023-01-28T20:08:28.197Z,89.35
2023-01-28T20:11:01.697Z,89.52
2023-01-28T20:13:35.013Z,89.82
2023-01-28T20:16:09.490Z,89.59
2023-01-28T20:18:36.411Z,89.96
2023-01-28T20:21:05.773Z,90.08
2023-01-28T20:23:33.383Z,89.87
2023-01-28T20:26:04.046Z,90.16
2023-01-28T20:28:31.207Z,90.05
2023-01-28T20:31:04.003Z,90.03
2023-01-28T20:33:31.127Z,89.88
2023-01-28T20:36:05.472Z,89.75
2023-01-28T20:38:36.818Z,89.53
2023-01-28T20:41:07.967Z,89.48
2023-01-28T20:43:35.841Z,89.08
2023-01-28T20:46:04.336Z,88.91
2023-01-28T20:48:31.213Z,88.81
2023-01-28T20:51:04.293Z,89.07
2023-01-28T20:53:31.344Z,89.04
2023-01-28T20:55:59.146Z,88.99
2023-01-28T20:58:27.079Z,88.83
2023-01-28T21:00:54.491Z,89.01
2023-01-28T21:03:22.007Z,89.03
2023-01-28T21:05:49.331Z,88.97
2023-01-28T21:08:16.805Z,89.20
2023-01-28T21:10:43.831Z,89.17
2023-01-28T21:13:11.801Z,89.43
2023-01-28T21:15:39.608Z,89.31
2023-01-28T21:18:07.237Z,89.41
2023-01-28T21:20:34.361Z,89.35
2023-01-28T21:23:01.564Z,89.26
2023-01-28T21:25:29.527Z,89.45
2023-01-28T21:27:56.406Z,89.44
2023-01-28T21:30:23.606Z,89.34
2023-01-28T21:32:50.574Z,89.09
2023-01-28T21:35:17.556Z,89.05
2023-01-28T21:37:47.607Z,88.95
2023-01-28T21:40:15.138Z,88.87
2023-01-28T21:42:43.811Z,88.47
2023-01-28T21:45:11.308Z,88.38
2023-01-28T21:47:38.487Z,88.44
2023-01-28T21:50:06.509Z,88.47
2023-01-28T21:52:33.631Z,88.25
2023-01-28T21:55:00.410Z,87.88
2023-01-28T21:57:27.515Z,88.16
2023-01-28T21:59:54.462Z,88.23
2023-01-28T22:02:24.010Z,88.26
2023-01-28T22:04:51.558Z,88.35
2023-01-28T22:07:19.784Z,88.23
2023-01-28T22:09:47.471Z,87.98
2023-01-28T22:12:17.827Z,88.25
2023-01-28T22:14:45.519Z,88.23
2023-01-28T22:17:13.765Z,88.39
2023-01-28T22:19:41.072Z,88.20
2023-01-28T22:22:08.116Z,88.34
2023-01-28T22:24:35.215Z,88.28
2023-01-28T22:27:02.459Z,88.17
2023-01-28T22:29:29.440Z,88.34
2023-01-28T22:31:56.937Z,87.89
2023-01-28T22:34:24.254Z,88.12
2023-01-28T22:36:52.058Z,87.90
2023-01-28T22:39:19.456Z,87.75
2023-01-28T22:41:47.179Z,87.70
2023-01-28T22:44:14.219Z,87.62
2023-01-28T22:46:41.557Z,87.52
2023-01-28T22:49:09.823Z,87.45
2023-01-28T22:51:36.536Z,87.34
2023-01-28T22:54:04.201Z,87.20
2023-01-28T22:56:31.341Z,86.70
2023-01-28T22:59:00.219Z,86.75
2023-01-28T23:01:27.755Z,86.95
2023-01-28T23:03:56.590Z,86.66
2023-01-28T23:06:24.208Z,86.76
2023-01-28T23:08:52.081Z,86.61
2023-01-28T23:11:25.829Z,86.96
2023-01-28T23:14:12.828Z,87.24
2023-01-28T23:16:58.251Z,87.07
2023-01-28T23:19:48.887Z,86.92
2023-01-28T23:22:55.080Z,86.91
2023-01-28T23:25:26.654Z,86.68
2023-01-28T23:27:58.466Z,86.83
2023-01-28T23:30:25.954Z,86.71
2023-01-28T23:32:55.005Z,86.79
2023-01-28T23:35:21.949Z,86.48
2023-01-28T23:37:48.890Z,86.38
2023-01-28T23:40:16.617Z,86.21
2023-01-28T23:42:47.910Z,86.57
2023-01-28T23:45:15.271Z,86.45
2023-01-28T23:47:41.998Z,86.57
2023-01-28T23:50:09.444Z,86.10
2023-01-28T23:52:36.381Z,86.31
2023-01-28T23:55:03.429Z,86.53
2023-01-28T23:57:30.200Z,86.32
2023-01-28T23:59:57.418Z,86.49
